DVA111 EYVI-EVRA
Flight info
| Callsign | DVA111 |
|---|---|
| Flight time | 0h 50m |
| Altitude | 24000 |
| Route | TAGOL DCT URIDO/N0310F230 DCT ERIVA DCT BECRE DCT AKNEZ |
| Aircraft | B350/L-SBGRW/S |
Departure
| Time | 2026-05-04 18:27 |
|---|---|
| Airport | Vilnius International Airport (EYVI) |
Arrival
| Time | 2026-05-04 19:17 |
|---|---|
| Airport | Riga International Airport (EVRA) |
| Time | Latitude | Longitude | Altitude | Speed | Heading |
|---|---|---|---|---|---|
| 2026-05-04 18:27 | 54.61685 | 25.28597 | 4378 ft | 187 kts | 233° |
| 2026-05-04 18:27 | 54.60752 | 25.27059 | 5001 ft | 185 kts | 223° |
| 2026-05-04 18:27 | 54.59642 | 25.25927 | 5633 ft | 186 kts | 211° |
| 2026-05-04 18:27 | 54.58452 | 25.25084 | 6279 ft | 184 kts | 208° |
| 2026-05-04 18:28 | 54.57281 | 25.24294 | 6889 ft | 182 kts | 209° |
| 2026-05-04 18:28 | 54.56077 | 25.23466 | 7421 ft | 187 kts | 210° |
| 2026-05-04 18:28 | 54.54871 | 25.22627 | 7906 ft | 191 kts | 210° |
| 2026-05-04 18:28 | 54.53636 | 25.21770 | 8402 ft | 190 kts | 212° |
| 2026-05-04 18:29 | 54.52543 | 25.20582 | 8936 ft | 184 kts | 227° |
| 2026-05-04 18:29 | 54.51677 | 25.18999 | 9462 ft | 180 kts | 240° |
| 2026-05-04 18:29 | 54.51074 | 25.17138 | 9974 ft | 177 kts | 252° |
| 2026-05-04 18:29 | 54.50754 | 25.15112 | 10463 ft | 175 kts | 264° |
| 2026-05-04 18:30 | 54.50970 | 25.10964 | 11464 ft | 176 kts | 284° |
| 2026-05-04 18:30 | 54.51285 | 25.08929 | 11948 ft | 176 kts | 282° |
| 2026-05-04 18:30 | 54.51594 | 25.06888 | 12467 ft | 176 kts | 283° |
| 2026-05-04 18:31 | 54.51907 | 25.04850 | 12981 ft | 176 kts | 283° |
| 2026-05-04 18:31 | 54.52229 | 25.02813 | 13506 ft | 176 kts | 285° |
| 2026-05-04 18:31 | 54.52762 | 25.00895 | 14015 ft | 179 kts | 298° |
| 2026-05-04 18:31 | 54.53560 | 24.99204 | 14498 ft | 186 kts | 310° |
| 2026-05-04 18:32 | 54.54596 | 24.97870 | 14987 ft | 193 kts | 323° |
| 2026-05-04 18:32 | 54.55864 | 24.96980 | 15496 ft | 202 kts | 338° |
| 2026-05-04 18:32 | 54.57287 | 24.96691 | 16015 ft | 211 kts | 353° |
| 2026-05-04 18:32 | 54.58770 | 24.97053 | 16535 ft | 218 kts | 3° |
| 2026-05-04 18:33 | 54.60266 | 24.97527 | 17051 ft | 219 kts | 2° |
| 2026-05-04 18:33 | 54.61771 | 24.97990 | 17576 ft | 220 kts | 2° |
| 2026-05-04 18:33 | 54.63291 | 24.98471 | 18067 ft | 224 kts | 3° |
| 2026-05-04 18:33 | 54.64831 | 24.98963 | 18497 ft | 226 kts | 3° |
| 2026-05-04 18:34 | 54.66388 | 24.99458 | 18925 ft | 229 kts | 2° |
| 2026-05-04 18:34 | 54.67960 | 24.99955 | 19350 ft | 230 kts | 3° |
| 2026-05-04 18:34 | 54.69544 | 25.00459 | 19789 ft | 232 kts | 3° |
| 2026-05-04 18:34 | 54.71133 | 25.00964 | 20237 ft | 233 kts | 3° |
| 2026-05-04 18:35 | 54.72734 | 25.01492 | 20689 ft | 234 kts | 5° |
| 2026-05-04 18:35 | 54.74337 | 25.02036 | 21134 ft | 236 kts | 4° |
| 2026-05-04 18:35 | 54.75970 | 25.02547 | 21508 ft | 241 kts | 4° |
| 2026-05-04 18:35 | 54.77641 | 25.03069 | 21872 ft | 246 kts | 4° |
| 2026-05-04 18:36 | 54.79336 | 25.03594 | 22243 ft | 248 kts | 2° |
| 2026-05-04 18:36 | 54.81048 | 25.04102 | 22620 ft | 251 kts | 3° |
| 2026-05-04 18:36 | 54.82760 | 25.04659 | 23003 ft | 254 kts | 4° |
| 2026-05-04 18:36 | 54.84503 | 25.05234 | 23396 ft | 255 kts | 3° |
| 2026-05-04 18:37 | 54.86256 | 25.05797 | 23729 ft | 257 kts | 3° |
| 2026-05-04 18:37 | 54.88023 | 25.06360 | 24059 ft | 259 kts | 3° |
| 2026-05-04 18:37 | 54.89801 | 25.06931 | 24366 ft | 262 kts | 3° |
| 2026-05-04 18:37 | 54.91645 | 25.07521 | 24386 ft | 276 kts | 3° |
| 2026-05-04 18:38 | 54.93570 | 25.08146 | 24394 ft | 286 kts | 4° |
| 2026-05-04 18:38 | 54.95554 | 25.08793 | 24395 ft | 294 kts | 4° |
| 2026-05-04 18:38 | 54.97588 | 25.09450 | 24394 ft | 300 kts | 4° |
| 2026-05-04 18:38 | 54.99654 | 25.10115 | 24393 ft | 304 kts | 4° |
| 2026-05-04 18:39 | 55.01742 | 25.10793 | 24396 ft | 307 kts | 4° |
| 2026-05-04 18:39 | 55.03854 | 25.11478 | 24394 ft | 309 kts | 4° |
| 2026-05-04 18:39 | 55.05973 | 25.12163 | 24394 ft | 311 kts | 4° |
| 2026-05-04 18:39 | 55.08105 | 25.12854 | 24394 ft | 312 kts | 4° |
| 2026-05-04 18:40 | 55.10241 | 25.13547 | 24391 ft | 313 kts | 4° |
| 2026-05-04 18:40 | 55.12384 | 25.14243 | 24396 ft | 314 kts | 4° |
| 2026-05-04 18:40 | 55.14535 | 25.14942 | 24391 ft | 314 kts | 4° |
| 2026-05-04 18:40 | 55.16686 | 25.15642 | 24391 ft | 314 kts | 4° |
| 2026-05-04 18:41 | 55.18836 | 25.16342 | 24390 ft | 315 kts | 4° |
| 2026-05-04 18:41 | 55.20992 | 25.17044 | 24386 ft | 315 kts | 4° |
| 2026-05-04 18:41 | 55.23149 | 25.17749 | 24386 ft | 315 kts | 4° |
| 2026-05-04 18:41 | 55.25305 | 25.18454 | 24387 ft | 315 kts | 3° |
| 2026-05-04 18:42 | 55.27466 | 25.19160 | 24388 ft | 316 kts | 3° |
| 2026-05-04 18:42 | 55.29640 | 25.19872 | 24285 ft | 319 kts | 4° |
| 2026-05-04 18:42 | 55.31838 | 25.20353 | 24153 ft | 317 kts | 356° |
| 2026-05-04 18:42 | 55.34044 | 25.20578 | 24009 ft | 320 kts | 356° |
| 2026-05-04 18:43 | 55.36279 | 25.20865 | 23851 ft | 323 kts | 357° |
| 2026-05-04 18:43 | 55.38526 | 25.21158 | 23689 ft | 324 kts | 357° |
| 2026-05-04 18:43 | 55.40788 | 25.21429 | 23523 ft | 325 kts | 356° |
| 2026-05-04 18:43 | 55.43050 | 25.21696 | 23345 ft | 326 kts | 357° |
| 2026-05-04 18:44 | 55.45290 | 25.21872 | 23142 ft | 322 kts | 350° |
| 2026-05-04 18:44 | 55.46038 | 25.21773 | 23063 ft | 319 kts | 346° |
| 2026-05-04 18:44 | 55.49522 | 25.20173 | 22700 ft | 306 kts | 329° |
| 2026-05-04 18:44 | 55.51404 | 25.18556 | 22673 ft | 298 kts | 326° |
| 2026-05-04 18:45 | 55.53265 | 25.16971 | 22669 ft | 294 kts | 327° |
| 2026-05-04 18:45 | 55.55106 | 25.15414 | 22664 ft | 291 kts | 326° |
| 2026-05-04 18:45 | 55.56918 | 25.13857 | 22662 ft | 289 kts | 326° |
| 2026-05-04 18:45 | 55.58721 | 25.12306 | 22658 ft | 287 kts | 326° |
| 2026-05-04 18:46 | 55.60516 | 25.10766 | 22657 ft | 286 kts | 326° |
| 2026-05-04 18:46 | 55.62285 | 25.09249 | 22656 ft | 285 kts | 326° |
| 2026-05-04 18:46 | 55.64067 | 25.07717 | 22656 ft | 285 kts | 326° |
| 2026-05-04 18:46 | 55.65845 | 25.06187 | 22660 ft | 284 kts | 326° |
| 2026-05-04 18:47 | 55.67625 | 25.04654 | 22661 ft | 284 kts | 326° |
| 2026-05-04 18:47 | 55.69400 | 25.03124 | 22660 ft | 283 kts | 326° |
| 2026-05-04 18:47 | 55.71177 | 25.01591 | 22649 ft | 283 kts | 326° |
| 2026-05-04 18:47 | 55.72945 | 25.00064 | 22660 ft | 283 kts | 325° |
| 2026-05-04 18:48 | 55.74717 | 24.98533 | 22658 ft | 283 kts | 325° |
| 2026-05-04 18:48 | 55.76486 | 24.97001 | 22653 ft | 283 kts | 325° |
| 2026-05-04 18:48 | 55.78259 | 24.95465 | 22656 ft | 283 kts | 325° |
| 2026-05-04 18:48 | 55.80028 | 24.93931 | 22652 ft | 283 kts | 325° |
| 2026-05-04 18:49 | 55.81793 | 24.92399 | 22653 ft | 282 kts | 325° |
| 2026-05-04 18:49 | 55.83537 | 24.90885 | 22651 ft | 282 kts | 325° |
| 2026-05-04 18:49 | 55.85304 | 24.89346 | 22653 ft | 282 kts | 325° |
| 2026-05-04 18:49 | 55.87068 | 24.87811 | 22655 ft | 282 kts | 324° |
| 2026-05-04 18:50 | 55.88831 | 24.86274 | 22649 ft | 282 kts | 324° |
| 2026-05-04 18:50 | 55.90594 | 24.84736 | 22650 ft | 282 kts | 324° |
| 2026-05-04 18:50 | 55.92358 | 24.83196 | 22650 ft | 282 kts | 324° |
| 2026-05-04 18:50 | 55.94121 | 24.81654 | 22652 ft | 282 kts | 324° |
| 2026-05-04 18:51 | 55.95878 | 24.80117 | 22651 ft | 282 kts | 324° |
| 2026-05-04 18:51 | 55.97637 | 24.78575 | 22649 ft | 282 kts | 324° |
| 2026-05-04 18:51 | 55.99398 | 24.77031 | 22652 ft | 281 kts | 324° |
| 2026-05-04 18:51 | 56.01154 | 24.75491 | 22650 ft | 281 kts | 324° |
| 2026-05-04 18:52 | 56.02915 | 24.73943 | 22654 ft | 281 kts | 324° |
| 2026-05-04 18:52 | 56.04671 | 24.72398 | 22649 ft | 281 kts | 324° |
| 2026-05-04 18:52 | 56.06425 | 24.70853 | 22651 ft | 281 kts | 324° |
| 2026-05-04 18:52 | 56.08186 | 24.69302 | 22539 ft | 284 kts | 324° |
| 2026-05-04 18:53 | 56.10008 | 24.67687 | 21954 ft | 300 kts | 324° |
| 2026-05-04 18:53 | 56.11915 | 24.66015 | 21385 ft | 309 kts | 325° |
| 2026-05-04 18:53 | 56.13868 | 24.64308 | 20819 ft | 315 kts | 326° |
| 2026-05-04 18:53 | 56.15819 | 24.62587 | 20275 ft | 318 kts | 326° |
| 2026-05-04 18:54 | 56.17805 | 24.60825 | 19733 ft | 319 kts | 326° |
| 2026-05-04 18:54 | 56.19149 | 24.59636 | 19374 ft | 320 kts | 326° |
| 2026-05-04 18:54 | 56.21143 | 24.57865 | 18844 ft | 320 kts | 326° |
| 2026-05-04 18:54 | 56.23786 | 24.55630 | 18171 ft | 315 kts | 333° |
| 2026-05-04 18:55 | 56.25943 | 24.54738 | 17628 ft | 322 kts | 346° |
| 2026-05-04 18:55 | 56.29746 | 24.55251 | 16714 ft | 335 kts | 9° |
| 2026-05-04 18:55 | 56.31899 | 24.56842 | 16192 ft | 342 kts | 25° |
| 2026-05-04 18:56 | 56.33913 | 24.59135 | 15638 ft | 341 kts | 25° |
| 2026-05-04 18:56 | 56.36083 | 24.60651 | 15050 ft | 330 kts | 8° |
| 2026-05-04 18:56 | 56.38319 | 24.61247 | 14478 ft | 320 kts | 354° |
| 2026-05-04 18:56 | 56.40498 | 24.60919 | 13921 ft | 309 kts | 342° |
| 2026-05-04 18:57 | 56.42529 | 24.59852 | 13347 ft | 301 kts | 334° |
| 2026-05-04 18:57 | 56.44522 | 24.58667 | 12770 ft | 300 kts | 336° |
| 2026-05-04 18:57 | 56.46512 | 24.57564 | 12194 ft | 298 kts | 336° |
| 2026-05-04 18:57 | 56.48464 | 24.56438 | 11629 ft | 292 kts | 335° |
| 2026-05-04 18:58 | 56.50352 | 24.55312 | 11082 ft | 288 kts | 335° |
| 2026-05-04 18:58 | 56.52271 | 24.54183 | 10536 ft | 285 kts | 336° |
| 2026-05-04 18:58 | 56.54127 | 24.53108 | 10000 ft | 283 kts | 336° |
| 2026-05-04 18:58 | 56.55993 | 24.52018 | 9442 ft | 281 kts | 335° |
| 2026-05-04 18:59 | 56.57845 | 24.50934 | 8863 ft | 279 kts | 335° |
| 2026-05-04 18:59 | 56.59687 | 24.49857 | 8277 ft | 277 kts | 335° |
| 2026-05-04 18:59 | 56.61509 | 24.48791 | 7731 ft | 275 kts | 336° |
| 2026-05-04 18:59 | 56.63331 | 24.47724 | 7176 ft | 273 kts | 335° |
| 2026-05-04 19:00 | 56.65133 | 24.46663 | 6636 ft | 272 kts | 336° |
| 2026-05-04 19:00 | 56.66933 | 24.45606 | 6089 ft | 270 kts | 336° |
| 2026-05-04 19:00 | 56.68717 | 24.44562 | 5527 ft | 269 kts | 336° |
| 2026-05-04 19:00 | 56.70487 | 24.43518 | 4963 ft | 266 kts | 337° |
| 2026-05-04 19:01 | 56.72243 | 24.42482 | 4407 ft | 264 kts | 337° |
| 2026-05-04 19:01 | 56.73993 | 24.41453 | 3838 ft | 263 kts | 338° |
| 2026-05-04 19:01 | 56.75728 | 24.40428 | 3274 ft | 262 kts | 338° |
| 2026-05-04 19:01 | 56.77456 | 24.39408 | 2726 ft | 260 kts | 339° |
| 2026-05-04 19:02 | 56.79121 | 24.38413 | 2634 ft | 244 kts | 338° |
| 2026-05-04 19:02 | 56.80674 | 24.37476 | 2623 ft | 233 kts | 338° |
| 2026-05-04 19:02 | 56.82193 | 24.36565 | 2625 ft | 228 kts | 338° |
| 2026-05-04 19:02 | 56.83691 | 24.35681 | 2621 ft | 225 kts | 338° |
| 2026-05-04 19:03 | 56.85174 | 24.34801 | 2620 ft | 223 kts | 338° |
| 2026-05-04 19:03 | 56.86645 | 24.33933 | 2621 ft | 222 kts | 339° |
| 2026-05-04 19:03 | 56.88120 | 24.33099 | 2624 ft | 221 kts | 338° |
| 2026-05-04 19:03 | 56.89586 | 24.32264 | 2617 ft | 221 kts | 341° |
| 2026-05-04 19:04 | 56.91033 | 24.31382 | 2620 ft | 218 kts | 334° |
| 2026-05-04 19:04 | 56.92406 | 24.30465 | 2619 ft | 201 kts | 337° |
| 2026-05-04 19:04 | 56.93686 | 24.29716 | 2620 ft | 187 kts | 337° |
| 2026-05-04 19:04 | 56.94896 | 24.28992 | 2615 ft | 179 kts | 336° |
| 2026-05-04 19:05 | 56.96056 | 24.28293 | 2619 ft | 173 kts | 336° |
| 2026-05-04 19:05 | 56.97191 | 24.27612 | 2618 ft | 170 kts | 336° |
| 2026-05-04 19:05 | 56.98307 | 24.26941 | 2621 ft | 168 kts | 336° |
| 2026-05-04 19:05 | 56.99414 | 24.26279 | 2625 ft | 167 kts | 336° |
| 2026-05-04 19:06 | 57.00516 | 24.25619 | 2620 ft | 166 kts | 336° |
| 2026-05-04 19:06 | 57.01606 | 24.24966 | 2617 ft | 161 kts | 336° |
| 2026-05-04 19:06 | 57.02619 | 24.24367 | 2618 ft | 149 kts | 335° |
| 2026-05-04 19:06 | 57.03579 | 24.23781 | 2621 ft | 141 kts | 335° |
| 2026-05-04 19:07 | 57.04498 | 24.23219 | 2632 ft | 138 kts | 335° |
| 2026-05-04 19:07 | 57.05401 | 24.22678 | 2637 ft | 134 kts | 334° |
| 2026-05-04 19:07 | 57.06283 | 24.22145 | 2639 ft | 134 kts | 334° |
| 2026-05-04 19:07 | 57.07182 | 24.21599 | 2640 ft | 137 kts | 334° |
| 2026-05-04 19:08 | 57.08095 | 24.21051 | 2639 ft | 139 kts | 335° |
| 2026-05-04 19:08 | 57.09018 | 24.20496 | 2639 ft | 140 kts | 335° |
| 2026-05-04 19:08 | 57.09951 | 24.19936 | 2634 ft | 141 kts | 335° |
| 2026-05-04 19:08 | 57.10845 | 24.19250 | 2632 ft | 136 kts | 320° |
| 2026-05-04 19:09 | 57.11517 | 24.18067 | 2623 ft | 132 kts | 303° |
| 2026-05-04 19:09 | 57.11923 | 24.16579 | 2619 ft | 130 kts | 285° |
| 2026-05-04 19:09 | 57.12052 | 24.14951 | 2622 ft | 128 kts | 274° |
| 2026-05-04 19:09 | 57.12135 | 24.13312 | 2627 ft | 129 kts | 276° |
| 2026-05-04 19:10 | 57.12218 | 24.11665 | 2628 ft | 130 kts | 276° |
| 2026-05-04 19:10 | 57.12301 | 24.10029 | 2631 ft | 130 kts | 276° |
| 2026-05-04 19:10 | 57.12385 | 24.08375 | 2630 ft | 130 kts | 276° |
| 2026-05-04 19:10 | 57.12467 | 24.06720 | 2628 ft | 130 kts | 275° |
| 2026-05-04 19:11 | 57.12545 | 24.05068 | 2628 ft | 129 kts | 273° |
| 2026-05-04 19:11 | 57.12399 | 24.03445 | 2614 ft | 130 kts | 251° |
| 2026-05-04 19:11 | 57.11882 | 24.02063 | 2618 ft | 134 kts | 230° |
| 2026-05-04 19:11 | 57.11082 | 24.01114 | 2623 ft | 138 kts | 218° |
| 2026-05-04 19:12 | 57.10278 | 24.00180 | 2620 ft | 137 kts | 217° |
| 2026-05-04 19:12 | 57.08314 | 23.99719 | 2626 ft | 132 kts | 195° |
| 2026-05-04 19:12 | 57.07465 | 23.99606 | 2628 ft | 115 kts | 197° |
| 2026-05-04 19:13 | 57.06706 | 23.99468 | 2623 ft | 106 kts | 197° |
| 2026-05-04 19:13 | 57.05969 | 23.99348 | 2533 ft | 108 kts | 198° |
| 2026-05-04 19:13 | 57.05198 | 23.99212 | 2385 ft | 114 kts | 197° |
| 2026-05-04 19:13 | 57.04397 | 23.99088 | 2231 ft | 119 kts | 196° |
| 2026-05-04 19:14 | 57.03559 | 23.98941 | 2064 ft | 126 kts | 195° |
| 2026-05-04 19:14 | 57.02673 | 23.98801 | 1894 ft | 129 kts | 195° |
| 2026-05-04 19:14 | 57.01760 | 23.98651 | 1711 ft | 131 kts | 193° |
| 2026-05-04 19:14 | 57.00861 | 23.98498 | 1534 ft | 131 kts | 194° |
| 2026-05-04 19:15 | 56.99953 | 23.98357 | 1354 ft | 131 kts | 192° |
| 2026-05-04 19:15 | 56.99054 | 23.98204 | 1177 ft | 128 kts | 192° |
| 2026-05-04 19:15 | 56.98171 | 23.98065 | 999 ft | 127 kts | 192° |
| 2026-05-04 19:15 | 56.97306 | 23.97919 | 824 ft | 124 kts | 189° |
| 2026-05-04 19:16 | 56.96437 | 23.97779 | 660 ft | 126 kts | 188° |
| 2026-05-04 19:16 | 56.95551 | 23.97630 | 478 ft | 129 kts | 187° |
| 2026-05-04 19:16 | 56.94661 | 23.97492 | 311 ft | 128 kts | 188° |
| 2026-05-04 19:16 | 56.93778 | 23.97346 | 205 ft | 124 kts | 185° |
| 2026-05-04 19:17 | 56.93014 | 23.97228 | 90 ft | 98 kts | 188° |
| 2026-05-04 19:17 | 56.92468 | 23.97120 | 40 ft | 42 kts | 186° |
| 2026-05-04 19:17 | 56.92307 | 23.97112 | 40 ft | 18 kts | 179° |
| 2026-05-04 19:17 | 56.92206 | 23.97094 | 40 ft | 12 kts | 186° |
| 2026-05-04 19:18 | 56.92094 | 23.97073 | 40 ft | 23 kts | 188° |
| 2026-05-04 19:18 | 56.91917 | 23.97078 | 40 ft | 27 kts | 168° |
| 2026-05-04 19:18 | 56.91748 | 23.97201 | 41 ft | 26 kts | 134° |
| 2026-05-04 19:18 | 56.91638 | 23.97377 | 41 ft | 21 kts | 188° |
| 2026-05-04 19:19 | 56.91489 | 23.97382 | 41 ft | 22 kts | 161° |
| 2026-05-04 19:19 | 56.91381 | 23.97483 | 41 ft | 11 kts | 102° |
| 2026-05-04 19:19 | 56.91410 | 23.97592 | 41 ft | 9 kts | 40° |
| 2026-05-04 19:19 | 56.91457 | 23.97612 | 41 ft | 7 kts | 358° |
| 2026-05-04 19:20 | 56.91526 | 23.97592 | 41 ft | 9 kts | 312° |
| 2026-05-04 19:20 | 56.91532 | 23.97578 | 41 ft | 0 kts | 272° |
| 2026-05-04 19:20 | 56.91532 | 23.97580 | 41 ft | 3 kts | 264° |
| 2026-05-04 19:20 | 56.91503 | 23.97615 | 41 ft | 7 kts | 9° |
| 2026-05-04 19:21 | 56.91506 | 23.97615 | 41 ft | 4 kts | 0° |
| 2026-05-04 19:21 | 56.91526 | 23.97612 | 41 ft | 11 kts | 354° |
| 2026-05-04 19:21 | 56.91571 | 23.97602 | 41 ft | 0 kts | 271° |
| 2026-05-04 19:21 | 56.91571 | 23.97601 | 41 ft | 0 kts | 265° |